createdAt,value
2023-04-24T00:01:04.702Z,66.97
2023-04-24T00:03:31.187Z,67.01
2023-04-24T00:05:57.858Z,66.89
2023-04-24T00:08:24.775Z,67.08
2023-04-24T00:10:51.316Z,67.07
2023-04-24T00:13:17.688Z,66.96
2023-04-24T00:15:44.203Z,67.06
2023-04-24T00:18:10.626Z,66.76
2023-04-24T00:20:37.376Z,66.85
2023-04-24T00:23:03.830Z,66.78
2023-04-24T00:25:30.391Z,66.83
2023-04-24T00:27:56.773Z,66.94
2023-04-24T00:30:23.576Z,66.63
2023-04-24T00:32:49.998Z,66.83
2023-04-24T00:35:16.423Z,66.96
2023-04-24T00:37:43.013Z,66.83
2023-04-24T00:40:09.864Z,67.09
2023-04-24T00:42:36.307Z,67.27
2023-04-24T00:45:04.149Z,67.35
2023-04-24T00:47:31.087Z,67.69
2023-04-24T00:49:57.508Z,67.82
2023-04-24T00:52:25.153Z,68.16
2023-04-24T00:54:51.584Z,68.29
2023-04-24T00:57:18.785Z,68.71
2023-04-24T00:59:45.505Z,68.80
2023-04-24T01:02:13.068Z,68.99
2023-04-24T01:04:40.429Z,69.17
2023-04-24T01:07:11.673Z,69.24
2023-04-24T01:09:43.064Z,69.35
2023-04-24T01:12:10.056Z,69.38
2023-04-24T01:14:37.336Z,69.13
2023-04-24T01:17:04.033Z,69.49
2023-04-24T01:19:30.493Z,69.44
2023-04-24T01:22:00.232Z,69.46
2023-04-24T01:24:26.813Z,69.44
2023-04-24T01:26:53.234Z,69.39
2023-04-24T01:29:20.453Z,69.44
2023-04-24T01:31:47.138Z,69.32
2023-04-24T01:34:14.144Z,69.16
2023-04-24T01:36:42.315Z,68.92
2023-04-24T01:39:08.722Z,68.76
2023-04-24T01:41:35.531Z,68.84
2023-04-24T01:44:02.566Z,68.60
2023-04-24T01:46:29.003Z,68.57
2023-04-24T01:48:55.780Z,68.55
2023-04-24T01:51:22.298Z,68.80
2023-04-24T01:53:48.770Z,68.77
2023-04-24T01:56:15.977Z,68.95
2023-04-24T01:58:42.546Z,68.58
2023-04-24T02:01:08.950Z,68.73
2023-04-24T02:03:35.679Z,68.52
2023-04-24T02:06:02.142Z,68.41
2023-04-24T02:08:28.555Z,68.76
2023-04-24T02:10:54.853Z,68.67
2023-04-24T02:13:21.213Z,68.87
2023-04-24T02:15:47.596Z,68.73
2023-04-24T02:18:14.057Z,68.86
2023-04-24T02:20:40.457Z,68.80
2023-04-24T02:23:06.837Z,68.43
2023-04-24T02:25:34.342Z,68.80
2023-04-24T02:28:00.784Z,68.68
2023-04-24T02:30:27.202Z,68.50
2023-04-24T02:32:53.585Z,68.67
2023-04-24T02:35:20.165Z,68.57
2023-04-24T02:37:46.651Z,68.51
2023-04-24T02:40:13.191Z,67.91
2023-04-24T02:42:39.606Z,68.03
2023-04-24T02:45:06.616Z,67.41
2023-04-24T02:47:33.011Z,67.31
2023-04-24T02:49:59.399Z,67.33
2023-04-24T02:52:25.770Z,67.43
2023-04-24T02:54:52.203Z,66.99
2023-04-24T02:57:18.557Z,67.30
2023-04-24T02:59:44.970Z,67.22
2023-04-24T03:02:11.483Z,66.98
2023-04-24T03:04:38.011Z,66.63
2023-04-24T03:07:05.465Z,66.22
2023-04-24T03:09:31.987Z,66.10
2023-04-24T03:11:59.241Z,66.09
2023-04-24T03:14:25.925Z,65.37
2023-04-24T03:16:52.289Z,65.77
2023-04-24T03:19:18.713Z,65.46
2023-04-24T03:21:45.186Z,65.37
2023-04-24T03:24:11.572Z,65.05
2023-04-24T03:26:37.913Z,65.10
2023-04-24T03:31:54.729Z,64.87
2023-04-24T03:34:21.543Z,64.73
2023-04-24T03:36:50.901Z,64.56
2023-04-24T03:39:17.439Z,64.32
2023-04-24T03:41:43.916Z,64.48
2023-04-24T03:44:10.352Z,64.17
2023-04-24T03:46:36.983Z,64.47
2023-04-24T03:49:03.527Z,64.38
2023-04-24T03:51:31.338Z,64.12
2023-04-24T03:53:58.008Z,64.25
2023-04-24T03:56:24.479Z,64.23
2023-04-24T03:58:50.902Z,64.34
2023-04-24T04:01:17.408Z,64.23
2023-04-24T04:03:44.257Z,64.38
2023-04-24T04:06:12.195Z,64.33
2023-04-24T04:08:38.673Z,64.20
2023-04-24T04:11:05.586Z,64.11
2023-04-24T04:13:32.220Z,64.40
2023-04-24T04:15:58.889Z,64.46
2023-04-24T04:18:25.546Z,64.49
2023-04-24T04:20:52.075Z,64.55
2023-04-24T04:23:18.661Z,64.59
2023-04-24T04:25:45.214Z,64.57
2023-04-24T04:28:11.711Z,64.60
2023-04-24T04:30:39.300Z,64.66
2023-04-24T04:33:05.923Z,64.93
2023-04-24T04:35:32.508Z,64.79
2023-04-24T04:37:59.793Z,64.96
2023-04-24T04:40:27.266Z,64.88
2023-04-24T04:42:54.453Z,65.02
2023-04-24T04:45:21.619Z,64.88
2023-04-24T04:47:48.957Z,64.89
2023-04-24T04:50:15.547Z,65.01
2023-04-24T04:52:42.049Z,65.14
2023-04-24T04:55:08.956Z,64.90
2023-04-24T04:57:35.664Z,65.28
2023-04-24T05:00:02.389Z,65.31
2023-04-24T05:02:29.272Z,65.31
2023-04-24T05:04:56.274Z,65.43
2023-04-24T05:07:22.991Z,65.30
2023-04-24T05:09:49.720Z,65.41
2023-04-24T05:12:16.304Z,65.41
2023-04-24T05:14:42.978Z,65.46
2023-04-24T05:17:09.642Z,65.29
2023-04-24T05:19:38.874Z,65.30
2023-04-24T05:22:07.989Z,65.23
2023-04-24T05:24:35.480Z,65.31
2023-04-24T05:27:03.413Z,65.30
2023-04-24T05:29:31.948Z,65.00
2023-04-24T05:31:59.078Z,65.40
2023-04-24T05:34:25.929Z,65.39
2023-04-24T05:36:52.701Z,65.27
2023-04-24T05:39:20.611Z,65.30
2023-04-24T05:41:47.129Z,64.93
2023-04-24T05:44:13.688Z,65.17
2023-04-24T05:46:40.365Z,65.14
2023-04-24T05:49:06.975Z,65.00
2023-04-24T05:51:33.715Z,65.18
2023-04-24T05:54:00.247Z,65.25
2023-04-24T05:56:26.813Z,65.17
2023-04-24T05:58:53.315Z,65.35
2023-04-24T06:01:20.717Z,65.08
2023-04-24T06:03:47.359Z,65.20
2023-04-24T06:06:14.615Z,65.09
2023-04-24T06:08:42.867Z,65.13
2023-04-24T06:11:09.296Z,65.05
2023-04-24T06:13:35.935Z,64.91
2023-04-24T06:16:02.807Z,65.08
2023-04-24T06:18:29.367Z,65.13
2023-04-24T06:20:56.462Z,65.16
2023-04-24T06:23:23.008Z,65.16
2023-04-24T06:25:49.627Z,65.18
2023-04-24T06:28:16.201Z,65.45
2023-04-24T06:30:42.780Z,65.13
2023-04-24T06:33:20.286Z,65.09
2023-04-24T06:35:48.408Z,64.83
2023-04-24T06:38:15.077Z,65.05
2023-04-24T06:40:41.694Z,64.88
2023-04-24T06:43:08.316Z,64.80
2023-04-24T06:45:34.891Z,64.60
2023-04-24T06:48:01.778Z,64.48
2023-04-24T06:50:28.404Z,64.43
2023-04-24T06:52:55.104Z,64.19
2023-04-24T06:55:21.637Z,64.12
2023-04-24T06:57:48.313Z,64.07
2023-04-24T07:00:15.220Z,63.64
2023-04-24T07:02:41.991Z,63.97
2023-04-24T07:05:09.460Z,63.87
2023-04-24T07:07:38.953Z,63.59
2023-04-24T07:10:06.645Z,63.47
2023-04-24T07:12:33.988Z,63.69
2023-04-24T07:15:01.911Z,63.18
2023-04-24T07:17:28.536Z,63.21
2023-04-24T07:19:55.206Z,63.30
2023-04-24T07:22:21.958Z,63.44
2023-04-24T07:24:48.666Z,63.53
2023-04-24T07:27:16.292Z,63.37
2023-04-24T07:29:43.439Z,63.12
2023-04-24T07:32:10.419Z,63.05
2023-04-24T07:34:37.033Z,63.00
2023-04-24T07:37:04.292Z,62.60
2023-04-24T07:39:30.907Z,62.93
2023-04-24T07:41:57.945Z,62.87
2023-04-24T07:44:24.439Z,62.39
2023-04-24T07:46:51.115Z,62.86
2023-04-24T07:49:19.916Z,62.93
2023-04-24T07:51:47.013Z,63.19
2023-04-24T07:54:13.991Z,63.35
2023-04-24T07:56:43.852Z,63.37
2023-04-24T07:59:11.477Z,63.23
2023-04-24T08:01:38.687Z,63.29
2023-04-24T08:04:05.625Z,63.05
2023-04-24T08:06:33.019Z,62.95
2023-04-24T08:09:01.296Z,62.54
2023-04-24T08:11:28.252Z,62.61
2023-04-24T08:13:56.040Z,62.45
2023-04-24T08:16:24.979Z,62.46
2023-04-24T08:18:52.321Z,62.65
2023-04-24T08:21:19.808Z,62.79
2023-04-24T08:23:46.855Z,62.87
2023-04-24T08:26:14.393Z,63.14
2023-04-24T08:28:41.188Z,63.12
2023-04-24T08:31:07.992Z,63.57
2023-04-24T08:33:37.526Z,63.59
2023-04-24T08:36:05.255Z,63.70
2023-04-24T08:38:32.436Z,63.98
2023-04-24T08:41:01.341Z,64.33
2023-04-24T08:43:28.600Z,64.57
2023-04-24T08:45:58.608Z,64.57
2023-04-24T08:48:31.088Z,64.58
2023-04-24T08:50:59.978Z,64.75
2023-04-24T08:53:27.341Z,64.85
2023-04-24T08:55:57.002Z,64.79
2023-04-24T08:58:27.026Z,65.01
2023-04-24T09:00:56.186Z,64.78
2023-04-24T09:03:23.506Z,64.93
2023-04-24T09:05:51.492Z,64.70
2023-04-24T09:08:19.965Z,64.99
2023-04-24T09:10:48.553Z,65.02
2023-04-24T09:13:16.906Z,65.10
2023-04-24T09:15:43.678Z,65.13
2023-04-24T09:18:10.443Z,65.19
2023-04-24T09:21:01.514Z,66.04
2023-04-24T09:23:32.572Z,65.54
2023-04-24T09:26:01.329Z,65.67
2023-04-24T09:28:31.342Z,65.39
2023-04-24T09:31:04.944Z,66.18
2023-04-24T09:33:31.679Z,65.58
2023-04-24T09:36:00.090Z,65.84
2023-04-24T09:38:34.612Z,66.58
2023-04-24T09:41:08.681Z,66.01
2023-04-24T09:43:36.692Z,66.00
2023-04-24T09:46:09.628Z,66.59
2023-04-24T09:48:38.996Z,67.04
2023-04-24T09:51:12.264Z,67.11
2023-04-24T09:53:40.385Z,67.27
2023-04-24T09:56:11.035Z,67.89
2023-04-24T09:58:37.909Z,67.75
2023-04-24T10:01:04.994Z,68.41
2023-04-24T10:03:33.421Z,68.32
2023-04-24T10:06:01.199Z,68.06
2023-04-24T10:08:27.802Z,68.10
2023-04-24T10:10:54.402Z,68.26
2023-04-24T10:13:21.248Z,68.59
2023-04-24T10:15:49.045Z,68.64
2023-04-24T10:18:16.797Z,68.88
2023-04-24T10:20:43.460Z,68.98
2023-04-24T10:23:12.172Z,69.51
2023-04-24T10:25:38.779Z,69.69
2023-04-24T10:28:07.750Z,70.02
2023-04-24T10:30:36.401Z,70.23
2023-04-24T10:33:07.842Z,70.45
2023-04-24T10:35:41.703Z,71.15
2023-04-24T10:38:12.770Z,70.94
2023-04-24T10:40:39.278Z,70.98
2023-04-24T10:43:08.997Z,71.46
2023-04-24T10:45:35.953Z,71.59
2023-04-24T10:48:07.110Z,72.10
2023-04-24T10:50:48.376Z,72.86
2023-04-24T10:53:20.001Z,72.74
2023-04-24T10:55:49.430Z,72.87
2023-04-24T10:58:17.656Z,72.85
2023-04-24T11:00:47.572Z,72.79
2023-04-24T11:03:25.671Z,73.30
2023-04-24T11:06:04.355Z,73.14
2023-04-24T11:08:45.010Z,74.09
2023-04-24T11:11:15.743Z,73.85
2023-04-24T11:13:54.530Z,74.28
2023-04-24T11:16:34.187Z,73.76
2023-04-24T11:19:05.710Z,74.21
2023-04-24T11:22:02.101Z,74.09
2023-04-24T11:24:32.042Z,74.20
2023-04-24T11:27:05.317Z,74.18
2023-04-24T11:29:58.533Z,74.36
2023-04-24T11:32:38.643Z,73.84
2023-04-24T11:35:17.376Z,73.84
2023-04-24T11:38:08.068Z,74.03
2023-04-24T11:40:39.007Z,74.10
2023-04-24T11:43:08.277Z,74.16
2023-04-24T11:45:35.427Z,74.35
2023-04-24T11:48:03.963Z,74.22
2023-04-24T11:50:31.374Z,74.35
2023-04-24T11:53:00.040Z,74.45
2023-04-24T11:55:29.460Z,74.24
2023-04-24T11:57:58.141Z,74.15
2023-04-24T12:00:27.798Z,74.08
2023-04-24T12:03:09.163Z,73.98
2023-04-24T12:05:36.366Z,74.23
2023-04-24T12:08:03.372Z,74.41
2023-04-24T12:10:31.701Z,74.42
2023-04-24T12:12:59.930Z,74.59
2023-04-24T12:15:27.232Z,74.48
2023-04-24T12:17:55.180Z,74.58
2023-04-24T12:20:29.993Z,74.18
2023-04-24T12:23:01.360Z,74.36
2023-04-24T12:25:29.950Z,74.86
2023-04-24T12:28:05.609Z,74.18
2023-04-24T12:30:51.253Z,73.79
2023-04-24T12:33:21.928Z,74.13
2023-04-24T12:35:52.223Z,75.12
2023-04-24T12:38:23.650Z,74.61
2023-04-24T12:41:03.928Z,74.54
2023-04-24T12:43:30.806Z,75.22
2023-04-24T12:45:57.965Z,74.75
2023-04-24T12:48:24.546Z,74.64
2023-04-24T12:50:51.226Z,74.56
2023-04-24T12:53:17.804Z,74.41
2023-04-24T12:55:45.807Z,74.06
2023-04-24T12:58:12.405Z,74.25
2023-04-24T13:00:39.815Z,74.17
2023-04-24T13:03:16.484Z,74.04
2023-04-24T13:05:44.205Z,74.29
2023-04-24T13:08:10.943Z,74.46
2023-04-24T13:10:37.769Z,74.55
2023-04-24T13:13:04.744Z,74.91
2023-04-24T13:15:31.643Z,75.14
2023-04-24T13:17:58.169Z,75.53
2023-04-24T13:20:24.743Z,76.34
2023-04-24T13:22:51.232Z,76.56
2023-04-24T13:25:18.198Z,76.92
2023-04-24T13:27:44.885Z,76.88
2023-04-24T13:30:11.798Z,76.29
2023-04-24T13:32:38.538Z,76.02
2023-04-24T13:35:05.451Z,75.46
2023-04-24T13:37:31.935Z,75.00
2023-04-24T13:39:58.385Z,74.94
2023-04-24T13:42:24.902Z,74.55
2023-04-24T13:44:52.314Z,74.06
2023-04-24T13:47:18.891Z,73.93
2023-04-24T13:49:45.427Z,73.67
2023-04-24T13:52:12.070Z,73.36
2023-04-24T13:54:38.640Z,73.09
2023-04-24T13:57:05.362Z,73.76
2023-04-24T13:59:32.053Z,74.27
2023-04-24T14:01:58.578Z,73.81
2023-04-24T14:04:25.786Z,72.87
2023-04-24T14:06:52.520Z,72.47
2023-04-24T14:09:19.050Z,72.03
2023-04-24T14:11:45.756Z,71.35
2023-04-24T14:14:12.535Z,71.15
2023-04-24T14:16:39.140Z,71.00
2023-04-24T14:19:06.518Z,71.15
2023-04-24T14:21:33.615Z,70.97
2023-04-24T14:24:00.205Z,71.07
2023-04-24T14:26:26.834Z,71.14
2023-04-24T14:29:03.773Z,71.55
2023-04-24T14:31:34.449Z,71.72
2023-04-24T14:34:01.167Z,71.98
2023-04-24T14:36:27.645Z,72.44
2023-04-24T14:38:54.189Z,73.01
2023-04-24T14:41:21.001Z,73.04
2023-04-24T14:43:47.881Z,72.84
2023-04-24T14:46:14.544Z,73.34
2023-04-24T14:48:41.385Z,73.08
2023-04-24T14:51:07.978Z,73.18
2023-04-24T14:53:35.030Z,72.92
2023-04-24T14:56:01.568Z,73.09
2023-04-24T14:58:28.145Z,73.21
2023-04-24T15:00:55.561Z,73.01
2023-04-24T15:03:23.178Z,72.83
2023-04-24T15:05:50.031Z,72.83
2023-04-24T15:08:16.632Z,72.77
2023-04-24T15:10:44.452Z,72.50
2023-04-24T15:13:11.015Z,72.15
2023-04-24T15:15:38.117Z,71.76
2023-04-24T15:18:06.515Z,70.99
2023-04-24T15:20:33.475Z,71.89
2023-04-24T15:23:01.489Z,72.29
2023-04-24T15:25:28.025Z,72.12
2023-04-24T15:27:54.550Z,71.88
2023-04-24T15:30:21.475Z,72.53
2023-04-24T15:32:47.896Z,72.35
2023-04-24T15:35:14.346Z,72.92
2023-04-24T15:37:40.768Z,73.00
2023-04-24T15:40:08.164Z,72.55
2023-04-24T15:42:36.033Z,72.55
2023-04-24T15:45:02.697Z,72.53
2023-04-24T15:47:29.356Z,72.01
2023-04-24T15:49:56.026Z,72.16
2023-04-24T15:52:22.549Z,71.56
2023-04-24T15:54:49.386Z,71.96
2023-04-24T15:57:15.932Z,71.52
2023-04-24T15:59:42.508Z,71.02
2023-04-24T16:02:12.372Z,70.03
2023-04-24T16:04:39.156Z,70.05
2023-04-24T16:07:05.642Z,70.04
2023-04-24T16:09:32.008Z,70.49
2023-04-24T16:12:00.408Z,71.03
2023-04-24T16:14:26.832Z,71.47
2023-04-24T16:16:53.295Z,71.30
2023-04-24T16:19:19.883Z,71.04
2023-04-24T16:21:46.281Z,70.88
2023-04-24T16:24:12.691Z,72.01
2023-04-24T16:26:39.723Z,72.70
2023-04-24T16:29:06.124Z,72.92
2023-04-24T16:31:32.984Z,72.54
2023-04-24T16:33:59.378Z,72.19
2023-04-24T16:36:26.037Z,71.59
2023-04-24T16:38:52.451Z,70.39
2023-04-24T16:41:18.888Z,69.83
2023-04-24T16:43:45.370Z,69.65
2023-04-24T16:46:11.769Z,69.32
2023-04-24T16:48:38.145Z,69.46
2023-04-24T16:51:04.544Z,69.69
2023-04-24T16:53:31.185Z,69.77
2023-04-24T16:55:57.576Z,69.55
2023-04-24T16:58:23.932Z,69.43
2023-04-24T17:00:50.390Z,69.27
2023-04-24T17:03:17.073Z,69.67
2023-04-24T17:05:43.828Z,69.95
2023-04-24T17:08:10.305Z,70.04
2023-04-24T17:10:36.877Z,70.42
2023-04-24T17:13:03.310Z,70.15
2023-04-24T17:15:29.793Z,70.15
2023-04-24T17:17:57.522Z,69.71
2023-04-24T17:20:24.520Z,70.01
2023-04-24T17:22:51.535Z,69.96
2023-04-24T17:25:18.292Z,69.99
2023-04-24T17:27:45.180Z,69.99
2023-04-24T17:30:12.195Z,69.91
2023-04-24T17:32:38.626Z,70.27
2023-04-24T17:35:05.779Z,69.61
2023-04-24T17:37:33.259Z,69.45
2023-04-24T17:39:59.659Z,69.79
2023-04-24T17:42:26.287Z,69.66
2023-04-24T17:44:52.703Z,69.53
2023-04-24T17:47:20.923Z,69.12
2023-04-24T17:49:47.305Z,69.07
2023-04-24T17:52:15.098Z,69.23
2023-04-24T17:54:41.488Z,68.70
2023-04-24T17:57:07.894Z,67.90
2023-04-24T17:59:35.159Z,67.66
2023-04-24T18:02:01.580Z,67.83
2023-04-24T18:04:39.180Z,66.83
2023-04-24T18:07:05.728Z,67.79
2023-04-24T18:09:32.067Z,67.95
2023-04-24T18:11:58.760Z,67.54
2023-04-24T18:14:26.922Z,67.69
2023-04-24T18:16:53.306Z,67.68
2023-04-24T18:19:19.684Z,67.69
2023-04-24T18:21:46.125Z,67.85
2023-04-24T18:24:12.527Z,68.13
2023-04-24T18:26:38.891Z,67.93
2023-04-24T18:29:05.349Z,67.95
2023-04-24T18:31:32.495Z,68.11
2023-04-24T18:33:59.153Z,68.24
2023-04-24T18:36:25.506Z,68.05
2023-04-24T18:38:51.924Z,68.36
2023-04-24T18:41:18.376Z,68.18
2023-04-24T18:43:44.734Z,67.67
2023-04-24T18:46:11.227Z,68.06
2023-04-24T18:48:37.742Z,67.67
2023-04-24T18:51:04.211Z,67.68
2023-04-24T18:53:30.556Z,68.20
2023-04-24T18:55:56.874Z,68.11
2023-04-24T18:58:23.234Z,68.16
2023-04-24T19:00:49.690Z,68.04
2023-04-24T19:03:16.298Z,68.06
2023-04-24T19:05:42.844Z,68.20
2023-04-24T19:08:09.249Z,68.37
2023-04-24T19:10:36.651Z,68.43
2023-04-24T19:13:03.615Z,68.34
2023-04-24T19:15:30.031Z,68.62
2023-04-24T19:17:56.785Z,68.07
2023-04-24T19:20:23.443Z,68.05
2023-04-24T19:22:50.855Z,67.45
2023-04-24T19:25:19.947Z,67.69
2023-04-24T19:27:46.384Z,67.33
2023-04-24T19:30:13.017Z,66.83
2023-04-24T19:32:39.486Z,66.70
2023-04-24T19:35:06.280Z,66.91
2023-04-24T19:37:34.310Z,66.47
2023-04-24T19:40:01.483Z,66.85
2023-04-24T19:42:41.937Z,67.07
2023-04-24T19:45:11.427Z,66.50
2023-04-24T19:47:37.923Z,66.94
2023-04-24T19:50:04.830Z,67.20
2023-04-24T19:52:31.323Z,66.92
2023-04-24T19:54:57.709Z,67.00
2023-04-24T19:57:24.148Z,67.07
2023-04-24T19:59:50.585Z,67.17
2023-04-24T20:02:17.104Z,67.19
2023-04-24T20:04:43.981Z,67.39
2023-04-24T20:07:10.640Z,67.23
2023-04-24T20:09:37.094Z,66.92
2023-04-24T20:12:03.541Z,67.00
2023-04-24T20:14:30.201Z,67.21
2023-04-24T20:16:56.490Z,67.47
2023-04-24T20:19:23.244Z,67.68
2023-04-24T20:21:49.860Z,67.47
2023-04-24T20:24:16.364Z,67.59
2023-04-24T20:26:43.069Z,67.78
2023-04-24T20:29:10.445Z,67.73
2023-04-24T20:31:37.429Z,67.53
2023-04-24T20:34:04.120Z,67.46
2023-04-24T20:36:30.455Z,67.70
2023-04-24T20:38:57.052Z,67.75
2023-04-24T20:41:24.653Z,67.53
2023-04-24T20:43:51.015Z,67.11
2023-04-24T20:46:17.421Z,67.63
2023-04-24T20:48:43.806Z,67.87
2023-04-24T20:51:10.151Z,67.66
2023-04-24T20:53:36.491Z,67.92
2023-04-24T20:56:03.346Z,68.03
2023-04-24T20:58:29.877Z,67.58
2023-04-24T21:00:56.263Z,67.84
2023-04-24T21:03:22.729Z,67.99
2023-04-24T21:05:49.076Z,67.99
2023-04-24T21:08:15.534Z,67.92
2023-04-24T21:10:42.187Z,68.09
2023-04-24T21:13:08.988Z,67.78
2023-04-24T21:15:35.514Z,68.42
2023-04-24T21:18:02.736Z,68.05
2023-04-24T21:20:29.159Z,67.80
2023-04-24T21:22:55.666Z,67.81
2023-04-24T21:25:22.398Z,68.18
2023-04-24T21:27:49.086Z,68.32
2023-04-24T21:30:15.612Z,68.40
2023-04-24T21:32:42.097Z,68.61
2023-04-24T21:38:14.956Z,68.67
2023-04-24T21:40:41.451Z,68.29
2023-04-24T21:43:09.711Z,68.54
2023-04-24T21:45:36.668Z,68.16
2023-04-24T21:48:03.188Z,68.77
2023-04-24T21:50:29.600Z,68.69
2023-04-24T21:52:56.054Z,69.01
2023-04-24T21:55:22.721Z,68.65
2023-04-24T21:57:49.323Z,68.59
2023-04-24T22:00:16.693Z,68.59
2023-04-24T22:02:43.583Z,68.85
2023-04-24T22:05:15.458Z,69.30
2023-04-24T22:07:48.432Z,69.07
2023-04-24T22:10:17.141Z,69.48
2023-04-24T22:12:44.467Z,69.39
2023-04-24T22:15:11.059Z,69.58
2023-04-24T22:17:38.881Z,69.29
2023-04-24T22:20:07.330Z,69.68
2023-04-24T22:22:35.106Z,69.46
2023-04-24T22:25:01.928Z,69.60
2023-04-24T22:27:28.621Z,69.76
2023-04-24T22:29:55.047Z,69.92
2023-04-24T22:32:21.772Z,70.01
2023-04-24T22:34:48.248Z,70.21
2023-04-24T22:37:14.738Z,70.13
2023-04-24T22:39:41.487Z,70.42
2023-04-24T22:42:07.955Z,70.57
2023-04-24T22:44:34.621Z,70.53
2023-04-24T22:47:01.097Z,70.91
2023-04-24T22:49:27.915Z,71.01
2023-04-24T22:51:57.549Z,71.16
2023-04-24T22:54:24.280Z,71.18
2023-04-24T22:56:52.630Z,71.23
2023-04-24T22:59:19.241Z,71.39
2023-04-24T23:01:45.675Z,71.56
2023-04-24T23:04:12.294Z,71.71
2023-04-24T23:06:38.853Z,71.72
2023-04-24T23:09:05.309Z,71.72
2023-04-24T23:11:32.131Z,72.14
2023-04-24T23:13:58.675Z,72.00
2023-04-24T23:16:25.157Z,71.99
2023-04-24T23:18:51.688Z,72.29
2023-04-24T23:21:18.093Z,72.35
2023-04-24T23:23:44.712Z,72.43
2023-04-24T23:26:11.146Z,72.59
2023-04-24T23:28:39.445Z,72.62
2023-04-24T23:31:06.123Z,72.97
2023-04-24T23:33:32.742Z,72.82
2023-04-24T23:35:59.295Z,72.90
2023-04-24T23:38:26.542Z,73.19
2023-04-24T23:40:53.959Z,73.49
2023-04-24T23:43:20.636Z,73.66
2023-04-24T23:45:47.124Z,73.55
2023-04-24T23:48:13.596Z,73.63
2023-04-24T23:50:40.493Z,73.78
2023-04-24T23:53:06.985Z,74.05
2023-04-24T23:55:33.438Z,73.94
2023-04-24T23:57:59.932Z,74.29
